sensor_id;sensor_type;location;lat;lon;timestamp;P1;durP1;ratioP1;P2;durP2;ratioP2
11827;SDS011;5971;49.646;8.568;2023-07-09T00:00:37;7.05;;;3.65;;
11827;SDS011;5971;49.646;8.568;2023-07-09T00:03:39;4.63;;;3.05;;
11827;SDS011;5971;49.646;8.568;2023-07-09T00:06:40;4.95;;;3.22;;
11827;SDS011;5971;49.646;8.568;2023-07-09T00:09:42;5.93;;;3.20;;
11827;SDS011;5971;49.646;8.568;2023-07-09T00:12:43;5.20;;;3.13;;
11827;SDS011;5971;49.646;8.568;2023-07-09T00:15:44;6.82;;;3.60;;
11827;SDS011;5971;49.646;8.568;2023-07-09T00:18:46;4.93;;;3.22;;
11827;SDS011;5971;49.646;8.568;2023-07-09T00:21:50;7.47;;;3.50;;
11827;SDS011;5971;49.646;8.568;2023-07-09T00:24:54;7.10;;;3.55;;
11827;SDS011;5971;49.646;8.568;2023-07-09T00:27:58;6.72;;;3.65;;
11827;SDS011;5971;49.646;8.568;2023-07-09T00:30:59;7.78;;;3.35;;
11827;SDS011;5971;49.646;8.568;2023-07-09T00:34:01;5.38;;;3.10;;
11827;SDS011;5971;49.646;8.568;2023-07-09T00:37:02;5.63;;;3.30;;
11827;SDS011;5971;49.646;8.568;2023-07-09T00:40:04;6.32;;;3.65;;
11827;SDS011;5971;49.646;8.568;2023-07-09T00:43:07;6.22;;;3.40;;
11827;SDS011;5971;49.646;8.568;2023-07-09T00:46:14;6.70;;;3.45;;
11827;SDS011;5971;49.646;8.568;2023-07-09T00:49:26;7.82;;;3.45;;
11827;SDS011;5971;49.646;8.568;2023-07-09T00:52:28;6.78;;;4.13;;
11827;SDS011;5971;49.646;8.568;2023-07-09T00:55:35;5.80;;;3.60;;
11827;SDS011;5971;49.646;8.568;2023-07-09T00:58:39;6.35;;;3.95;;
11827;SDS011;5971;49.646;8.568;2023-07-09T01:01:40;5.85;;;3.58;;
11827;SDS011;5971;49.646;8.568;2023-07-09T01:04:42;7.05;;;3.55;;
11827;SDS011;5971;49.646;8.568;2023-07-09T01:07:44;8.18;;;3.10;;
11827;SDS011;5971;49.646;8.568;2023-07-09T01:10:49;5.35;;;2.95;;
11827;SDS011;5971;49.646;8.568;2023-07-09T01:13:52;6.28;;;3.83;;
11827;SDS011;5971;49.646;8.568;2023-07-09T01:16:57;6.55;;;3.03;;
11827;SDS011;5971;49.646;8.568;2023-07-09T01:19:59;7.40;;;3.65;;
11827;SDS011;5971;49.646;8.568;2023-07-09T01:23:01;6.10;;;3.65;;
11827;SDS011;5971;49.646;8.568;2023-07-09T01:26:02;6.40;;;3.58;;
11827;SDS011;5971;49.646;8.568;2023-07-09T01:29:04;6.65;;;3.60;;
11827;SDS011;5971;49.646;8.568;2023-07-09T01:32:06;8.80;;;4.20;;
11827;SDS011;5971;49.646;8.568;2023-07-09T01:35:07;6.10;;;3.55;;
11827;SDS011;5971;49.646;8.568;2023-07-09T01:38:09;7.35;;;4.07;;
11827;SDS011;5971;49.646;8.568;2023-07-09T01:41:10;5.45;;;4.07;;
11827;SDS011;5971;49.646;8.568;2023-07-09T01:44:15;5.82;;;3.88;;
11827;SDS011;5971;49.646;8.568;2023-07-09T01:47:16;6.30;;;3.83;;
11827;SDS011;5971;49.646;8.568;2023-07-09T01:50:18;6.70;;;4.10;;
11827;SDS011;5971;49.646;8.568;2023-07-09T01:53:22;7.50;;;4.18;;
11827;SDS011;5971;49.646;8.568;2023-07-09T01:56:24;7.05;;;4.22;;
11827;SDS011;5971;49.646;8.568;2023-07-09T01:59:26;7.00;;;3.90;;
11827;SDS011;5971;49.646;8.568;2023-07-09T02:02:28;6.78;;;4.38;;
11827;SDS011;5971;49.646;8.568;2023-07-09T02:05:32;5.38;;;3.60;;
11827;SDS011;5971;49.646;8.568;2023-07-09T02:08:34;7.93;;;4.32;;
11827;SDS011;5971;49.646;8.568;2023-07-09T02:11:36;7.03;;;3.97;;
11827;SDS011;5971;49.646;8.568;2023-07-09T02:14:38;6.75;;;4.68;;
11827;SDS011;5971;49.646;8.568;2023-07-09T02:17:40;7.13;;;4.22;;
11827;SDS011;5971;49.646;8.568;2023-07-09T02:20:41;7.70;;;4.93;;
11827;SDS011;5971;49.646;8.568;2023-07-09T02:23:43;7.50;;;4.57;;
11827;SDS011;5971;49.646;8.568;2023-07-09T02:26:44;8.88;;;4.43;;
11827;SDS011;5971;49.646;8.568;2023-07-09T02:29:46;6.13;;;4.40;;
11827;SDS011;5971;49.646;8.568;2023-07-09T02:32:47;6.35;;;4.22;;
11827;SDS011;5971;49.646;8.568;2023-07-09T02:35:49;7.88;;;4.53;;
11827;SDS011;5971;49.646;8.568;2023-07-09T02:38:50;6.75;;;4.45;;
11827;SDS011;5971;49.646;8.568;2023-07-09T02:41:51;6.72;;;4.43;;
11827;SDS011;5971;49.646;8.568;2023-07-09T02:44:53;8.75;;;4.63;;
11827;SDS011;5971;49.646;8.568;2023-07-09T02:47:54;8.02;;;4.53;;
11827;SDS011;5971;49.646;8.568;2023-07-09T02:50:56;8.50;;;4.63;;
11827;SDS011;5971;49.646;8.568;2023-07-09T02:53:57;6.07;;;3.95;;
11827;SDS011;5971;49.646;8.568;2023-07-09T02:56:59;6.32;;;3.90;;
11827;SDS011;5971;49.646;8.568;2023-07-09T03:00:01;8.60;;;4.15;;
11827;SDS011;5971;49.646;8.568;2023-07-09T03:03:08;6.40;;;3.72;;
11827;SDS011;5971;49.646;8.568;2023-07-09T03:06:10;5.95;;;3.90;;
11827;SDS011;5971;49.646;8.568;2023-07-09T03:09:11;6.82;;;3.65;;
11827;SDS011;5971;49.646;8.568;2023-07-09T03:12:12;5.78;;;3.30;;
11827;SDS011;5971;49.646;8.568;2023-07-09T03:15:14;5.32;;;3.40;;
11827;SDS011;5971;49.646;8.568;2023-07-09T03:18:15;6.07;;;3.63;;
11827;SDS011;5971;49.646;8.568;2023-07-09T03:21:17;6.47;;;3.42;;
11827;SDS011;5971;49.646;8.568;2023-07-09T03:24:18;5.85;;;3.50;;
11827;SDS011;5971;49.646;8.568;2023-07-09T03:27:20;7.88;;;3.80;;
11827;SDS011;5971;49.646;8.568;2023-07-09T03:30:22;5.05;;;3.35;;
11827;SDS011;5971;49.646;8.568;2023-07-09T03:33:23;6.72;;;3.55;;
11827;SDS011;5971;49.646;8.568;2023-07-09T03:36:24;5.38;;;3.05;;
11827;SDS011;5971;49.646;8.568;2023-07-09T03:39:26;7.95;;;3.75;;
11827;SDS011;5971;49.646;8.568;2023-07-09T03:42:27;6.32;;;3.80;;
11827;SDS011;5971;49.646;8.568;2023-07-09T03:45:29;5.30;;;3.63;;
11827;SDS011;5971;49.646;8.568;2023-07-09T03:48:31;5.85;;;3.40;;
11827;SDS011;5971;49.646;8.568;2023-07-09T03:51:32;5.68;;;3.47;;
11827;SDS011;5971;49.646;8.568;2023-07-09T03:54:33;5.80;;;3.83;;
11827;SDS011;5971;49.646;8.568;2023-07-09T03:57:35;7.65;;;4.38;;
11827;SDS011;5971;49.646;8.568;2023-07-09T04:00:37;7.85;;;4.00;;
11827;SDS011;5971;49.646;8.568;2023-07-09T04:03:38;6.57;;;3.33;;
11827;SDS011;5971;49.646;8.568;2023-07-09T04:06:39;6.88;;;3.60;;
11827;SDS011;5971;49.646;8.568;2023-07-09T04:09:41;7.38;;;3.78;;
11827;SDS011;5971;49.646;8.568;2023-07-09T04:12:42;5.68;;;3.88;;
11827;SDS011;5971;49.646;8.568;2023-07-09T04:15:43;6.45;;;3.90;;
11827;SDS011;5971;49.646;8.568;2023-07-09T04:18:45;6.18;;;3.60;;
11827;SDS011;5971;49.646;8.568;2023-07-09T04:21:46;6.90;;;3.88;;
11827;SDS011;5971;49.646;8.568;2023-07-09T04:24:48;6.32;;;3.97;;
11827;SDS011;5971;49.646;8.568;2023-07-09T04:27:50;6.95;;;3.53;;
11827;SDS011;5971;49.646;8.568;2023-07-09T04:30:52;5.13;;;3.65;;
11827;SDS011;5971;49.646;8.568;2023-07-09T04:33:53;7.05;;;3.97;;
11827;SDS011;5971;49.646;8.568;2023-07-09T04:36:54;6.60;;;3.85;;
11827;SDS011;5971;49.646;8.568;2023-07-09T04:39:56;7.57;;;4.07;;
11827;SDS011;5971;49.646;8.568;2023-07-09T04:42:57;7.32;;;4.35;;
11827;SDS011;5971;49.646;8.568;2023-07-09T04:45:58;6.60;;;4.05;;
11827;SDS011;5971;49.646;8.568;2023-07-09T04:49:00;5.78;;;3.85;;
11827;SDS011;5971;49.646;8.568;2023-07-09T04:52:01;5.82;;;3.88;;
11827;SDS011;5971;49.646;8.568;2023-07-09T04:55:03;6.60;;;3.42;;
11827;SDS011;5971;49.646;8.568;2023-07-09T04:58:05;6.15;;;3.72;;
11827;SDS011;5971;49.646;8.568;2023-07-09T05:01:06;6.60;;;3.80;;
11827;SDS011;5971;49.646;8.568;2023-07-09T05:04:07;5.93;;;3.63;;
11827;SDS011;5971;49.646;8.568;2023-07-09T05:07:09;7.30;;;3.72;;
11827;SDS011;5971;49.646;8.568;2023-07-09T05:10:10;6.97;;;3.78;;
11827;SDS011;5971;49.646;8.568;2023-07-09T05:13:12;6.32;;;3.83;;
11827;SDS011;5971;49.646;8.568;2023-07-09T05:16:13;7.10;;;4.28;;
11827;SDS011;5971;49.646;8.568;2023-07-09T05:19:15;6.55;;;3.72;;
11827;SDS011;5971;49.646;8.568;2023-07-09T05:22:16;7.05;;;4.20;;
11827;SDS011;5971;49.646;8.568;2023-07-09T05:25:18;6.43;;;3.95;;
11827;SDS011;5971;49.646;8.568;2023-07-09T05:28:19;6.53;;;4.20;;
11827;SDS011;5971;49.646;8.568;2023-07-09T05:31:20;6.32;;;4.20;;
11827;SDS011;5971;49.646;8.568;2023-07-09T05:34:22;6.30;;;3.63;;
11827;SDS011;5971;49.646;8.568;2023-07-09T05:37:23;6.53;;;4.15;;
11827;SDS011;5971;49.646;8.568;2023-07-09T05:40:25;7.28;;;4.13;;
11827;SDS011;5971;49.646;8.568;2023-07-09T05:43:26;8.95;;;4.60;;
11827;SDS011;5971;49.646;8.568;2023-07-09T05:49:31;7.32;;;3.95;;
11827;SDS011;5971;49.646;8.568;2023-07-09T05:52:33;6.60;;;4.07;;
11827;SDS011;5971;49.646;8.568;2023-07-09T05:55:35;8.30;;;4.70;;
11827;SDS011;5971;49.646;8.568;2023-07-09T05:58:36;6.65;;;3.72;;
11827;SDS011;5971;49.646;8.568;2023-07-09T06:01:38;6.95;;;3.78;;
11827;SDS011;5971;49.646;8.568;2023-07-09T06:04:39;7.25;;;4.03;;
11827;SDS011;5971;49.646;8.568;2023-07-09T06:07:40;6.35;;;4.03;;
11827;SDS011;5971;49.646;8.568;2023-07-09T06:10:55;6.35;;;4.05;;
11827;SDS011;5971;49.646;8.568;2023-07-09T06:13:57;7.50;;;4.13;;
11827;SDS011;5971;49.646;8.568;2023-07-09T06:17:00;7.07;;;4.28;;
11827;SDS011;5971;49.646;8.568;2023-07-09T06:20:01;7.32;;;4.15;;
11827;SDS011;5971;49.646;8.568;2023-07-09T06:23:03;5.85;;;3.65;;
11827;SDS011;5971;49.646;8.568;2023-07-09T06:26:04;7.78;;;4.65;;
11827;SDS011;5971;49.646;8.568;2023-07-09T06:29:06;8.32;;;3.80;;
11827;SDS011;5971;49.646;8.568;2023-07-09T06:32:07;6.10;;;3.60;;
11827;SDS011;5971;49.646;8.568;2023-07-09T06:35:08;8.60;;;3.80;;
11827;SDS011;5971;49.646;8.568;2023-07-09T06:38:10;5.78;;;3.33;;
11827;SDS011;5971;49.646;8.568;2023-07-09T06:41:12;5.53;;;3.13;;
11827;SDS011;5971;49.646;8.568;2023-07-09T06:44:13;5.68;;;3.13;;
11827;SDS011;5971;49.646;8.568;2023-07-09T06:47:15;5.93;;;3.63;;
11827;SDS011;5971;49.646;8.568;2023-07-09T06:50:16;5.95;;;3.20;;
11827;SDS011;5971;49.646;8.568;2023-07-09T06:53:18;8.77;;;3.70;;
11827;SDS011;5971;49.646;8.568;2023-07-09T06:56:19;6.38;;;3.13;;
11827;SDS011;5971;49.646;8.568;2023-07-09T06:59:20;7.63;;;3.17;;
11827;SDS011;5971;49.646;8.568;2023-07-09T07:02:22;7.10;;;3.22;;
11827;SDS011;5971;49.646;8.568;2023-07-09T07:05:23;6.35;;;3.63;;
11827;SDS011;5971;49.646;8.568;2023-07-09T07:08:25;7.28;;;3.83;;
11827;SDS011;5971;49.646;8.568;2023-07-09T07:11:26;5.28;;;3.28;;
11827;SDS011;5971;49.646;8.568;2023-07-09T07:14:31;5.40;;;3.50;;
11827;SDS011;5971;49.646;8.568;2023-07-09T07:17:32;6.50;;;3.83;;
11827;SDS011;5971;49.646;8.568;2023-07-09T07:20:34;6.55;;;3.60;;
11827;SDS011;5971;49.646;8.568;2023-07-09T07:23:35;6.28;;;3.70;;
11827;SDS011;5971;49.646;8.568;2023-07-09T07:26:36;5.10;;;3.28;;
11827;SDS011;5971;49.646;8.568;2023-07-09T07:29:38;7.28;;;3.85;;
11827;SDS011;5971;49.646;8.568;2023-07-09T07:32:48;6.95;;;3.72;;
11827;SDS011;5971;49.646;8.568;2023-07-09T07:35:50;5.03;;;3.30;;
11827;SDS011;5971;49.646;8.568;2023-07-09T07:39:12;6.20;;;3.85;;
11827;SDS011;5971;49.646;8.568;2023-07-09T07:42:13;6.65;;;3.38;;
11827;SDS011;5971;49.646;8.568;2023-07-09T07:45:15;6.65;;;3.65;;
11827;SDS011;5971;49.646;8.568;2023-07-09T07:48:16;6.65;;;3.70;;
11827;SDS011;5971;49.646;8.568;2023-07-09T07:51:17;5.30;;;3.22;;
11827;SDS011;5971;49.646;8.568;2023-07-09T07:54:19;6.45;;;3.30;;
11827;SDS011;5971;49.646;8.568;2023-07-09T07:57:21;6.25;;;3.53;;
11827;SDS011;5971;49.646;8.568;2023-07-09T08:00:22;5.72;;;3.65;;
11827;SDS011;5971;49.646;8.568;2023-07-09T08:03:24;5.57;;;3.50;;
11827;SDS011;5971;49.646;8.568;2023-07-09T08:06:25;5.45;;;3.55;;
11827;SDS011;5971;49.646;8.568;2023-07-09T08:09:27;6.82;;;3.65;;
11827;SDS011;5971;49.646;8.568;2023-07-09T08:12:29;7.38;;;4.05;;
11827;SDS011;5971;49.646;8.568;2023-07-09T08:15:30;5.43;;;3.80;;
11827;SDS011;5971;49.646;8.568;2023-07-09T08:18:32;5.82;;;3.70;;
11827;SDS011;5971;49.646;8.568;2023-07-09T08:21:34;8.38;;;3.58;;
11827;SDS011;5971;49.646;8.568;2023-07-09T08:24:35;6.85;;;3.88;;
11827;SDS011;5971;49.646;8.568;2023-07-09T08:27:36;6.72;;;3.92;;
11827;SDS011;5971;49.646;8.568;2023-07-09T08:30:38;6.20;;;3.72;;
11827;SDS011;5971;49.646;8.568;2023-07-09T08:33:39;6.40;;;3.78;;
11827;SDS011;5971;49.646;8.568;2023-07-09T08:36:41;5.63;;;3.92;;
11827;SDS011;5971;49.646;8.568;2023-07-09T08:39:42;6.10;;;4.20;;
11827;SDS011;5971;49.646;8.568;2023-07-09T08:42:45;6.05;;;3.85;;
11827;SDS011;5971;49.646;8.568;2023-07-09T08:49:19;5.50;;;3.85;;
11827;SDS011;5971;49.646;8.568;2023-07-09T08:52:29;5.05;;;3.72;;
11827;SDS011;5971;49.646;8.568;2023-07-09T08:55:32;6.68;;;4.25;;
11827;SDS011;5971;49.646;8.568;2023-07-09T08:58:41;5.45;;;3.40;;
11827;SDS011;5971;49.646;8.568;2023-07-09T09:01:47;5.72;;;3.75;;
11827;SDS011;5971;49.646;8.568;2023-07-09T09:04:50;6.75;;;4.13;;
11827;SDS011;5971;49.646;8.568;2023-07-09T09:07:57;5.28;;;3.85;;
11827;SDS011;5971;49.646;8.568;2023-07-09T09:12:08;8.23;;;4.50;;
11827;SDS011;5971;49.646;8.568;2023-07-09T09:14:37;7.00;;;3.85;;
11827;SDS011;5971;49.646;8.568;2023-07-09T09:17:39;7.10;;;4.03;;
11827;SDS011;5971;49.646;8.568;2023-07-09T09:20:41;5.45;;;3.60;;
11827;SDS011;5971;49.646;8.568;2023-07-09T09:23:44;7.30;;;3.92;;
11827;SDS011;5971;49.646;8.568;2023-07-09T09:26:47;7.00;;;4.03;;
11827;SDS011;5971;49.646;8.568;2023-07-09T09:32:58;5.15;;;4.00;;
11827;SDS011;5971;49.646;8.568;2023-07-09T09:36:03;5.97;;;3.80;;
11827;SDS011;5971;49.646;8.568;2023-07-09T09:39:08;7.38;;;3.90;;
11827;SDS011;5971;49.646;8.568;2023-07-09T09:42:10;6.43;;;4.68;;
11827;SDS011;5971;49.646;8.568;2023-07-09T09:48:16;7.03;;;4.47;;
11827;SDS011;5971;49.646;8.568;2023-07-09T09:51:18;5.55;;;4.80;;
11827;SDS011;5971;49.646;8.568;2023-07-09T09:54:20;5.10;;;3.83;;
11827;SDS011;5971;49.646;8.568;2023-07-09T09:57:23;5.40;;;3.88;;
11827;SDS011;5971;49.646;8.568;2023-07-09T10:00:25;6.03;;;3.70;;
11827;SDS011;5971;49.646;8.568;2023-07-09T10:03:37;6.57;;;3.72;;
11827;SDS011;5971;49.646;8.568;2023-07-09T10:06:40;6.72;;;3.90;;
11827;SDS011;5971;49.646;8.568;2023-07-09T10:15:59;5.68;;;3.65;;
11827;SDS011;5971;49.646;8.568;2023-07-09T10:19:23;4.45;;;3.53;;
11827;SDS011;5971;49.646;8.568;2023-07-09T10:25:35;5.25;;;3.60;;
11827;SDS011;5971;49.646;8.568;2023-07-09T10:34:55;4.28;;;3.20;;
11827;SDS011;5971;49.646;8.568;2023-07-09T10:38:04;4.47;;;3.22;;
11827;SDS011;5971;49.646;8.568;2023-07-09T10:41:09;4.90;;;3.50;;
11827;SDS011;5971;49.646;8.568;2023-07-09T10:44:34;4.53;;;2.85;;
11827;SDS011;5971;49.646;8.568;2023-07-09T10:50:39;4.68;;;2.88;;
11827;SDS011;5971;49.646;8.568;2023-07-09T10:53:43;3.83;;;2.42;;
11827;SDS011;5971;49.646;8.568;2023-07-09T10:56:47;4.78;;;2.75;;
11827;SDS011;5971;49.646;8.568;2023-07-09T10:59:49;5.35;;;3.00;;
11827;SDS011;5971;49.646;8.568;2023-07-09T11:02:54;4.30;;;2.53;;
11827;SDS011;5971;49.646;8.568;2023-07-09T11:05:59;4.93;;;2.78;;
11827;SDS011;5971;49.646;8.568;2023-07-09T11:09:01;6.28;;;2.72;;
11827;SDS011;5971;49.646;8.568;2023-07-09T11:12:05;3.83;;;2.55;;
11827;SDS011;5971;49.646;8.568;2023-07-09T11:15:15;3.35;;;2.33;;
11827;SDS011;5971;49.646;8.568;2023-07-09T11:18:20;4.35;;;2.70;;
11827;SDS011;5971;49.646;8.568;2023-07-09T11:21:25;3.42;;;2.33;;
11827;SDS011;5971;49.646;8.568;2023-07-09T11:24:29;4.72;;;2.70;;
11827;SDS011;5971;49.646;8.568;2023-07-09T11:27:31;3.90;;;2.63;;
11827;SDS011;5971;49.646;8.568;2023-07-09T11:30:32;4.32;;;2.85;;
11827;SDS011;5971;49.646;8.568;2023-07-09T11:33:43;3.80;;;2.75;;
11827;SDS011;5971;49.646;8.568;2023-07-09T11:39:48;5.20;;;2.88;;
11827;SDS011;5971;49.646;8.568;2023-07-09T11:45:51;4.20;;;2.85;;
11827;SDS011;5971;49.646;8.568;2023-07-09T11:48:53;4.20;;;3.00;;
11827;SDS011;5971;49.646;8.568;2023-07-09T11:51:57;4.28;;;2.85;;
11827;SDS011;5971;49.646;8.568;2023-07-09T11:55:44;4.07;;;2.45;;
11827;SDS011;5971;49.646;8.568;2023-07-09T11:58:25;3.95;;;2.60;;
11827;SDS011;5971;49.646;8.568;2023-07-09T12:01:31;5.10;;;2.72;;
11827;SDS011;5971;49.646;8.568;2023-07-09T12:04:34;4.18;;;2.97;;
11827;SDS011;5971;49.646;8.568;2023-07-09T12:07:36;5.00;;;2.88;;
11827;SDS011;5971;49.646;8.568;2023-07-09T12:10:42;3.63;;;2.67;;
11827;SDS011;5971;49.646;8.568;2023-07-09T12:13:44;5.82;;;2.72;;
11827;SDS011;5971;49.646;8.568;2023-07-09T12:16:47;3.72;;;2.63;;
11827;SDS011;5971;49.646;8.568;2023-07-09T12:19:50;4.47;;;2.63;;
11827;SDS011;5971;49.646;8.568;2023-07-09T12:22:52;5.38;;;3.17;;
11827;SDS011;5971;49.646;8.568;2023-07-09T12:25:54;4.72;;;2.83;;
11827;SDS011;5971;49.646;8.568;2023-07-09T12:28:56;4.65;;;2.90;;
11827;SDS011;5971;49.646;8.568;2023-07-09T12:31:59;4.13;;;2.88;;
11827;SDS011;5971;49.646;8.568;2023-07-09T12:35:00;5.00;;;2.90;;
11827;SDS011;5971;49.646;8.568;2023-07-09T12:38:02;3.90;;;2.83;;
11827;SDS011;5971;49.646;8.568;2023-07-09T12:41:03;4.68;;;2.90;;
11827;SDS011;5971;49.646;8.568;2023-07-09T12:47:07;4.07;;;2.65;;
11827;SDS011;5971;49.646;8.568;2023-07-09T12:50:22;5.40;;;2.65;;
11827;SDS011;5971;49.646;8.568;2023-07-09T12:53:28;5.05;;;3.25;;
11827;SDS011;5971;49.646;8.568;2023-07-09T12:59:38;4.43;;;2.38;;
11827;SDS011;5971;49.646;8.568;2023-07-09T13:02:39;4.68;;;2.58;;
11827;SDS011;5971;49.646;8.568;2023-07-09T13:05:50;5.65;;;2.63;;
11827;SDS011;5971;49.646;8.568;2023-07-09T13:08:55;3.85;;;2.47;;
11827;SDS011;5971;49.646;8.568;2023-07-09T13:11:57;4.03;;;2.42;;
11827;SDS011;5971;49.646;8.568;2023-07-09T13:14:59;4.63;;;2.63;;
11827;SDS011;5971;49.646;8.568;2023-07-09T13:18:02;4.57;;;2.60;;
11827;SDS011;5971;49.646;8.568;2023-07-09T13:21:10;4.05;;;2.58;;
11827;SDS011;5971;49.646;8.568;2023-07-09T13:24:24;4.10;;;2.95;;
11827;SDS011;5971;49.646;8.568;2023-07-09T13:27:26;4.43;;;2.40;;
11827;SDS011;5971;49.646;8.568;2023-07-09T13:30:27;3.65;;;2.67;;
11827;SDS011;5971;49.646;8.568;2023-07-09T13:33:28;3.85;;;2.70;;
11827;SDS011;5971;49.646;8.568;2023-07-09T13:36:30;5.63;;;2.58;;
11827;SDS011;5971;49.646;8.568;2023-07-09T13:39:31;4.00;;;2.90;;
11827;SDS011;5971;49.646;8.568;2023-07-09T13:42:33;5.22;;;2.97;;
11827;SDS011;5971;49.646;8.568;2023-07-09T13:45:35;5.75;;;2.92;;
11827;SDS011;5971;49.646;8.568;2023-07-09T13:48:38;4.65;;;3.10;;
11827;SDS011;5971;49.646;8.568;2023-07-09T13:51:44;5.68;;;3.03;;
11827;SDS011;5971;49.646;8.568;2023-07-09T13:54:45;4.80;;;2.95;;
11827;SDS011;5971;49.646;8.568;2023-07-09T13:57:50;4.75;;;2.85;;
11827;SDS011;5971;49.646;8.568;2023-07-09T14:00:55;4.55;;;3.25;;
11827;SDS011;5971;49.646;8.568;2023-07-09T14:03:57;4.90;;;2.92;;
11827;SDS011;5971;49.646;8.568;2023-07-09T14:07:02;4.35;;;3.20;;
11827;SDS011;5971;49.646;8.568;2023-07-09T14:10:05;5.55;;;3.50;;
11827;SDS011;5971;49.646;8.568;2023-07-09T14:13:08;5.70;;;2.85;;
11827;SDS011;5971;49.646;8.568;2023-07-09T14:16:13;5.60;;;2.63;;
11827;SDS011;5971;49.646;8.568;2023-07-09T14:19:17;4.13;;;2.75;;
11827;SDS011;5971;49.646;8.568;2023-07-09T14:25:23;4.45;;;2.40;;
11827;SDS011;5971;49.646;8.568;2023-07-09T14:28:25;5.03;;;2.67;;
11827;SDS011;5971;49.646;8.568;2023-07-09T14:31:27;5.22;;;2.70;;
11827;SDS011;5971;49.646;8.568;2023-07-09T14:34:31;3.97;;;2.78;;
11827;SDS011;5971;49.646;8.568;2023-07-09T14:37:33;4.18;;;2.35;;
11827;SDS011;5971;49.646;8.568;2023-07-09T14:40:35;3.80;;;2.33;;
11827;SDS011;5971;49.646;8.568;2023-07-09T14:43:36;3.83;;;2.50;;
11827;SDS011;5971;49.646;8.568;2023-07-09T14:46:38;4.38;;;2.70;;
11827;SDS011;5971;49.646;8.568;2023-07-09T14:49:39;3.65;;;2.35;;
11827;SDS011;5971;49.646;8.568;2023-07-09T14:52:41;3.60;;;2.30;;
11827;SDS011;5971;49.646;8.568;2023-07-09T14:55:43;5.57;;;2.70;;
11827;SDS011;5971;49.646;8.568;2023-07-09T14:58:46;4.88;;;2.72;;
11827;SDS011;5971;49.646;8.568;2023-07-09T15:01:47;5.95;;;2.50;;
11827;SDS011;5971;49.646;8.568;2023-07-09T15:04:49;4.07;;;2.60;;
11827;SDS011;5971;49.646;8.568;2023-07-09T15:07:51;4.47;;;2.20;;
11827;SDS011;5971;49.646;8.568;2023-07-09T15:10:53;4.45;;;2.22;;
11827;SDS011;5971;49.646;8.568;2023-07-09T15:13:54;6.38;;;2.60;;
11827;SDS011;5971;49.646;8.568;2023-07-09T15:16:56;3.85;;;2.20;;
11827;SDS011;5971;49.646;8.568;2023-07-09T15:20:01;4.22;;;2.20;;
11827;SDS011;5971;49.646;8.568;2023-07-09T15:23:02;4.55;;;2.83;;
11827;SDS011;5971;49.646;8.568;2023-07-09T15:26:08;5.18;;;2.42;;
11827;SDS011;5971;49.646;8.568;2023-07-09T15:29:13;3.78;;;2.33;;
11827;SDS011;5971;49.646;8.568;2023-07-09T15:32:16;4.82;;;2.42;;
11827;SDS011;5971;49.646;8.568;2023-07-09T15:35:19;5.47;;;2.47;;
11827;SDS011;5971;49.646;8.568;2023-07-09T15:38:27;6.55;;;2.88;;
11827;SDS011;5971;49.646;8.568;2023-07-09T15:44:30;4.60;;;2.70;;
11827;SDS011;5971;49.646;8.568;2023-07-09T15:47:32;5.10;;;2.55;;
11827;SDS011;5971;49.646;8.568;2023-07-09T15:50:33;4.97;;;2.83;;
11827;SDS011;5971;49.646;8.568;2023-07-09T15:53:35;5.93;;;2.78;;
11827;SDS011;5971;49.646;8.568;2023-07-09T15:56:36;5.47;;;2.45;;
11827;SDS011;5971;49.646;8.568;2023-07-09T15:59:38;5.05;;;2.53;;
11827;SDS011;5971;49.646;8.568;2023-07-09T16:02:41;4.63;;;2.20;;
11827;SDS011;5971;49.646;8.568;2023-07-09T16:05:42;3.88;;;2.53;;
11827;SDS011;5971;49.646;8.568;2023-07-09T16:08:44;3.80;;;2.33;;
11827;SDS011;5971;49.646;8.568;2023-07-09T16:11:47;6.47;;;2.92;;
11827;SDS011;5971;49.646;8.568;2023-07-09T16:14:48;5.25;;;2.80;;
11827;SDS011;5971;49.646;8.568;2023-07-09T16:17:50;5.00;;;2.60;;
11827;SDS011;5971;49.646;8.568;2023-07-09T16:20:52;4.30;;;2.67;;
11827;SDS011;5971;49.646;8.568;2023-07-09T16:23:54;4.70;;;2.95;;
11827;SDS011;5971;49.646;8.568;2023-07-09T16:26:56;6.43;;;2.53;;
11827;SDS011;5971;49.646;8.568;2023-07-09T16:29:57;5.78;;;2.80;;
11827;SDS011;5971;49.646;8.568;2023-07-09T16:32:59;4.57;;;2.47;;
11827;SDS011;5971;49.646;8.568;2023-07-09T16:36:00;5.75;;;2.65;;
11827;SDS011;5971;49.646;8.568;2023-07-09T16:39:25;5.38;;;2.75;;
11827;SDS011;5971;49.646;8.568;2023-07-09T16:42:27;4.65;;;3.22;;
11827;SDS011;5971;49.646;8.568;2023-07-09T16:45:28;5.57;;;2.50;;
11827;SDS011;5971;49.646;8.568;2023-07-09T16:48:30;4.50;;;2.35;;
11827;SDS011;5971;49.646;8.568;2023-07-09T16:51:32;3.97;;;2.50;;
11827;SDS011;5971;49.646;8.568;2023-07-09T16:54:33;5.88;;;3.00;;
11827;SDS011;5971;49.646;8.568;2023-07-09T16:57:34;5.20;;;3.05;;
11827;SDS011;5971;49.646;8.568;2023-07-09T17:00:36;5.18;;;2.60;;
11827;SDS011;5971;49.646;8.568;2023-07-09T17:03:37;4.50;;;2.45;;
11827;SDS011;5971;49.646;8.568;2023-07-09T17:06:41;5.50;;;2.80;;
11827;SDS011;5971;49.646;8.568;2023-07-09T17:09:42;5.43;;;2.75;;
11827;SDS011;5971;49.646;8.568;2023-07-09T17:12:44;5.32;;;2.70;;
11827;SDS011;5971;49.646;8.568;2023-07-09T17:15:45;4.15;;;2.50;;
11827;SDS011;5971;49.646;8.568;2023-07-09T17:18:47;6.22;;;3.00;;
11827;SDS011;5971;49.646;8.568;2023-07-09T17:21:48;4.72;;;2.65;;
11827;SDS011;5971;49.646;8.568;2023-07-09T17:24:51;5.47;;;3.20;;
11827;SDS011;5971;49.646;8.568;2023-07-09T17:27:52;4.88;;;2.72;;
11827;SDS011;5971;49.646;8.568;2023-07-09T17:30:54;5.25;;;2.72;;
11827;SDS011;5971;49.646;8.568;2023-07-09T17:33:56;4.35;;;3.00;;
11827;SDS011;5971;49.646;8.568;2023-07-09T17:36:58;4.15;;;2.50;;
11827;SDS011;5971;49.646;8.568;2023-07-09T17:39:59;4.55;;;2.30;;
11827;SDS011;5971;49.646;8.568;2023-07-09T17:43:01;5.10;;;2.55;;
11827;SDS011;5971;49.646;8.568;2023-07-09T17:46:02;5.53;;;2.75;;
11827;SDS011;5971;49.646;8.568;2023-07-09T17:49:08;5.75;;;2.92;;
11827;SDS011;5971;49.646;8.568;2023-07-09T17:52:17;6.65;;;2.90;;
11827;SDS011;5971;49.646;8.568;2023-07-09T17:55:18;5.38;;;2.95;;
11827;SDS011;5971;49.646;8.568;2023-07-09T17:58:24;4.88;;;2.80;;
11827;SDS011;5971;49.646;8.568;2023-07-09T18:01:28;8.02;;;3.05;;
11827;SDS011;5971;49.646;8.568;2023-07-09T18:04:31;5.07;;;2.63;;
11827;SDS011;5971;49.646;8.568;2023-07-09T18:07:33;7.68;;;3.08;;
11827;SDS011;5971;49.646;8.568;2023-07-09T18:10:35;7.18;;;3.47;;
11827;SDS011;5971;49.646;8.568;2023-07-09T18:13:37;6.32;;;2.90;;
11827;SDS011;5971;49.646;8.568;2023-07-09T18:16:38;7.18;;;3.40;;
11827;SDS011;5971;49.646;8.568;2023-07-09T18:19:40;6.72;;;2.70;;
11827;SDS011;5971;49.646;8.568;2023-07-09T18:22:42;6.38;;;2.80;;
11827;SDS011;5971;49.646;8.568;2023-07-09T18:25:44;5.35;;;3.60;;
11827;SDS011;5971;49.646;8.568;2023-07-09T18:28:46;5.18;;;2.97;;
11827;SDS011;5971;49.646;8.568;2023-07-09T18:31:47;5.30;;;2.65;;
11827;SDS011;5971;49.646;8.568;2023-07-09T18:34:55;6.13;;;3.10;;
11827;SDS011;5971;49.646;8.568;2023-07-09T18:37:59;6.57;;;2.72;;
11827;SDS011;5971;49.646;8.568;2023-07-09T18:41:00;6.53;;;3.00;;
11827;SDS011;5971;49.646;8.568;2023-07-09T18:44:19;6.35;;;3.00;;
11827;SDS011;5971;49.646;8.568;2023-07-09T18:47:21;4.90;;;2.80;;
11827;SDS011;5971;49.646;8.568;2023-07-09T18:50:27;5.28;;;2.83;;
11827;SDS011;5971;49.646;8.568;2023-07-09T18:53:28;6.53;;;2.85;;
11827;SDS011;5971;49.646;8.568;2023-07-09T18:56:31;5.30;;;3.60;;
11827;SDS011;5971;49.646;8.568;2023-07-09T18:59:33;6.70;;;3.10;;
11827;SDS011;5971;49.646;8.568;2023-07-09T19:02:35;6.10;;;2.80;;
11827;SDS011;5971;49.646;8.568;2023-07-09T19:05:37;6.05;;;3.13;;
11827;SDS011;5971;49.646;8.568;2023-07-09T19:08:39;5.18;;;2.97;;
11827;SDS011;5971;49.646;8.568;2023-07-09T19:11:41;6.10;;;3.00;;
11827;SDS011;5971;49.646;8.568;2023-07-09T19:14:43;7.47;;;3.75;;
11827;SDS011;5971;49.646;8.568;2023-07-09T19:17:44;4.68;;;2.92;;
11827;SDS011;5971;49.646;8.568;2023-07-09T19:20:46;5.38;;;3.13;;
11827;SDS011;5971;49.646;8.568;2023-07-09T19:23:48;4.28;;;2.72;;
11827;SDS011;5971;49.646;8.568;2023-07-09T19:26:50;7.05;;;3.17;;